createdAt,value
2019-01-17T00:02:25.694Z,16.87
2019-01-17T00:05:10.425Z,20.20
2019-01-17T00:08:01.751Z,19.57
2019-01-17T00:10:43.983Z,15.33
2019-01-17T00:13:27.293Z,21.00
2019-01-17T00:16:18.629Z,17.30
2019-01-17T00:19:04.386Z,13.53
2019-01-17T00:22:03.160Z,20.77
2019-01-17T00:25:06.494Z,24.47
2019-01-17T00:28:00.455Z,13.90
2019-01-17T00:30:57.739Z,11.60
2019-01-17T00:33:47.118Z,22.87
2019-01-17T00:36:33.381Z,22.70
2019-01-17T00:39:24.048Z,21.97
2019-01-17T00:42:18.777Z,15.70
2019-01-17T00:45:04.673Z,9.53
2019-01-17T00:47:54.429Z,13.73
2019-01-17T00:50:45.784Z,12.87
2019-01-17T00:53:25.309Z,18.57
2019-01-17T00:56:19.545Z,21.47
2019-01-17T00:59:00.492Z,19.40
2019-01-17T01:01:53.525Z,11.70
2019-01-17T01:04:48.733Z,17.37
2019-01-17T01:07:36.880Z,21.03
2019-01-17T01:10:27.129Z,13.77
2019-01-17T01:13:14.073Z,17.63
2019-01-17T01:16:13.601Z,16.70
2019-01-17T01:18:54.590Z,22.13
2019-01-17T01:21:51.821Z,16.80
2019-01-17T01:24:48.693Z,15.40
2019-01-17T01:27:40.425Z,15.43
2019-01-17T01:30:21.585Z,18.80
2019-01-17T01:33:05.321Z,20.27
2019-01-17T01:35:49.337Z,14.63
2019-01-17T01:38:43.106Z,17.40
2019-01-17T01:41:49.460Z,12.60
2019-01-17T01:44:39.078Z,14.10
2019-01-17T01:47:30.403Z,17.67
2019-01-17T01:50:27.960Z,17.93
2019-01-17T01:53:04.853Z,14.93
2019-01-17T01:55:36.484Z,14.37
2019-01-17T01:58:08.125Z,12.80
2019-01-17T02:00:39.764Z,15.90
2019-01-17T02:03:11.424Z,21.90
2019-01-17T02:05:43.061Z,14.53
2019-01-17T02:08:14.699Z,16.20
2019-01-17T02:10:46.525Z,18.20
2019-01-17T02:13:18.240Z,9.53
2019-01-17T02:15:49.973Z,12.13
2019-01-17T02:18:21.603Z,12.27
2019-01-17T02:20:53.228Z,9.73
2019-01-17T02:23:24.852Z,10.77
2019-01-17T02:25:56.602Z,18.03
2019-01-17T02:28:28.228Z,18.50
2019-01-17T02:30:59.861Z,13.37
2019-01-17T02:33:31.481Z,16.93
2019-01-17T02:36:03.335Z,15.27
2019-01-17T02:38:34.957Z,11.80
2019-01-17T02:41:06.592Z,15.80
2019-01-17T02:43:38.233Z,19.73
2019-01-17T02:46:09.981Z,12.37
2019-01-17T02:48:41.596Z,19.57
2019-01-17T02:51:13.331Z,14.43
2019-01-17T02:53:44.959Z,18.40
2019-01-17T02:56:16.604Z,13.30
2019-01-17T02:58:48.242Z,14.60
2019-01-17T03:01:19.873Z,11.07
2019-01-17T03:03:51.505Z,14.30
2019-01-17T03:06:23.357Z,13.63
2019-01-17T03:08:55.064Z,11.93
2019-01-17T03:11:26.826Z,12.23
2019-01-17T03:13:58.442Z,21.33
2019-01-17T03:16:30.085Z,13.77
2019-01-17T03:19:01.818Z,15.17
2019-01-17T03:21:33.463Z,12.17
2019-01-17T03:24:05.205Z,15.30
2019-01-17T03:26:36.846Z,14.33
2019-01-17T03:29:08.484Z,18.03
2019-01-17T03:31:40.118Z,16.33
2019-01-17T03:34:11.753Z,13.00
2019-01-17T03:36:43.381Z,20.00
2019-01-17T03:39:15.005Z,18.20
2019-01-17T03:41:46.734Z,20.80
2019-01-17T03:44:18.359Z,15.67
2019-01-17T03:46:50.029Z,11.63
2019-01-17T03:49:21.648Z,14.23
2019-01-17T03:51:53.293Z,10.97
2019-01-17T03:54:24.941Z,18.93
2019-01-17T03:56:56.655Z,16.50
2019-01-17T03:59:28.277Z,15.67
2019-01-17T04:01:59.915Z,17.83
2019-01-17T04:04:31.553Z,16.57
2019-01-17T04:07:03.391Z,17.50
2019-01-17T04:09:35.012Z,11.57
2019-01-17T04:12:06.643Z,11.50
2019-01-17T04:14:38.272Z,13.90
2019-01-17T04:17:09.906Z,19.73
2019-01-17T04:19:41.530Z,14.60
2019-01-17T04:22:13.166Z,14.93
2019-01-17T04:24:44.804Z,11.57
2019-01-17T04:27:16.433Z,13.87
2019-01-17T04:29:48.072Z,18.93
2019-01-17T04:32:19.698Z,16.10
2019-01-17T04:34:51.315Z,17.80
2019-01-17T04:37:23.050Z,13.90
2019-01-17T04:39:54.674Z,12.03
2019-01-17T04:42:26.313Z,10.27
2019-01-17T04:44:57.921Z,11.97
2019-01-17T04:47:29.663Z,11.67
2019-01-17T04:50:01.287Z,15.57
2019-01-17T04:52:32.929Z,19.20
2019-01-17T04:55:05.857Z,14.37
2019-01-17T04:57:37.508Z,10.50
2019-01-17T05:00:12.320Z,14.43
2019-01-17T05:02:43.964Z,11.10
2019-01-17T05:05:15.698Z,17.30
2019-01-17T05:07:47.422Z,10.10
2019-01-17T05:10:19.049Z,20.77
2019-01-17T05:12:50.689Z,13.53
2019-01-17T05:15:22.326Z,13.17
2019-01-17T05:17:53.997Z,13.80
2019-01-17T05:20:25.714Z,12.10
2019-01-17T05:22:57.358Z,9.73
2019-01-17T05:25:28.977Z,9.10
2019-01-17T05:28:00.631Z,11.60
2019-01-17T05:30:32.280Z,13.40
2019-01-17T05:33:04.025Z,7.73
2019-01-17T05:35:35.642Z,11.73
2019-01-17T05:38:07.272Z,11.67
2019-01-17T05:40:38.901Z,10.57
2019-01-17T05:43:10.710Z,19.83
2019-01-17T05:45:42.325Z,12.83
2019-01-17T05:48:13.970Z,11.10
2019-01-17T05:50:45.625Z,9.70
2019-01-17T05:53:17.269Z,10.00
2019-01-17T05:55:48.992Z,11.37
2019-01-17T05:58:20.641Z,6.50
2019-01-17T06:00:52.442Z,12.03
2019-01-17T06:03:24.082Z,15.93
2019-01-17T06:05:55.728Z,9.43
2019-01-17T06:08:27.382Z,10.30
2019-01-17T06:10:59.004Z,11.63
2019-01-17T06:13:30.733Z,13.03
2019-01-17T06:16:03.160Z,13.73
2019-01-17T06:18:34.805Z,9.43
2019-01-17T06:21:06.459Z,8.70
2019-01-17T06:23:38.388Z,11.13
2019-01-17T06:26:10.017Z,11.33
2019-01-17T06:28:41.650Z,10.47
2019-01-17T06:31:13.268Z,11.37
2019-01-17T06:33:44.979Z,10.03
2019-01-17T06:36:16.642Z,8.07
2019-01-17T06:38:48.292Z,10.80
2019-01-17T06:41:19.925Z,11.57
2019-01-17T06:43:51.570Z,10.67
2019-01-17T06:46:23.200Z,8.10
2019-01-17T06:48:54.858Z,11.20
2019-01-17T06:51:26.562Z,10.03
2019-01-17T06:53:58.214Z,8.43
2019-01-17T06:56:29.837Z,9.17
2019-01-17T06:59:01.464Z,7.93
2019-01-17T07:01:33.109Z,7.97
2019-01-17T07:04:04.858Z,14.60
2019-01-17T07:06:36.505Z,7.07
2019-01-17T07:09:08.155Z,10.03
2019-01-17T07:11:39.790Z,7.03
2019-01-17T07:14:11.437Z,8.70
2019-01-17T07:16:43.051Z,8.57
2019-01-17T07:19:14.680Z,7.87
2019-01-17T07:21:46.317Z,12.23
2019-01-17T07:24:17.936Z,11.20
2019-01-17T07:26:49.636Z,7.07
2019-01-17T07:29:21.286Z,10.40
2019-01-17T07:31:52.908Z,12.17
2019-01-17T07:34:24.565Z,6.97
2019-01-17T07:36:56.192Z,8.97
2019-01-17T07:39:27.816Z,7.70
2019-01-17T07:41:59.437Z,7.47
2019-01-17T07:44:31.074Z,6.80
2019-01-17T07:47:02.805Z,9.37
2019-01-17T07:49:34.446Z,7.67
2019-01-17T07:52:06.268Z,7.30
2019-01-17T07:54:37.911Z,7.60
2019-01-17T07:57:09.554Z,7.43
2019-01-17T07:59:41.181Z,5.40
2019-01-17T08:02:12.817Z,7.97
2019-01-17T08:04:44.432Z,7.90
2019-01-17T08:07:16.073Z,7.53
2019-01-17T08:09:47.706Z,10.03
2019-01-17T08:12:19.338Z,6.80
2019-01-17T08:14:50.965Z,6.30
2019-01-17T08:17:22.596Z,8.43
2019-01-17T08:19:54.217Z,5.93
2019-01-17T08:22:25.849Z,5.10
2019-01-17T08:24:57.481Z,6.20
2019-01-17T08:27:29.104Z,6.63
2019-01-17T08:30:00.739Z,6.50
2019-01-17T08:32:32.348Z,5.83
2019-01-17T08:35:04.465Z,8.70
2019-01-17T08:37:36.070Z,6.93
2019-01-17T08:40:20.120Z,7.27
2019-01-17T08:42:47.952Z,8.87
2019-01-17T08:45:19.589Z,23.73
2019-01-17T08:47:51.200Z,8.03
2019-01-17T08:50:23.056Z,9.13
2019-01-17T08:52:54.680Z,6.67
2019-01-17T08:55:26.416Z,5.17
2019-01-17T08:57:58.045Z,7.13
2019-01-17T09:00:29.676Z,9.03
2019-01-17T09:03:01.310Z,7.57
2019-01-17T09:05:32.957Z,6.53
2019-01-17T09:08:04.772Z,6.27
2019-01-17T09:10:36.775Z,8.20
2019-01-17T09:13:08.518Z,5.23
2019-01-17T09:15:40.153Z,5.40
2019-01-17T09:18:11.773Z,4.70
2019-01-17T09:20:43.407Z,10.20
2019-01-17T09:23:15.033Z,9.03
2019-01-17T09:25:46.680Z,6.73
2019-01-17T09:28:18.293Z,7.57
2019-01-17T09:30:49.924Z,9.17
2019-01-17T09:33:21.644Z,7.57
2019-01-17T09:35:53.279Z,5.53
2019-01-17T09:38:24.990Z,5.47
2019-01-17T09:40:56.723Z,7.93
2019-01-17T09:43:28.342Z,5.90
2019-01-17T09:45:59.968Z,9.30
2019-01-17T09:48:31.669Z,5.67
2019-01-17T09:51:03.408Z,6.23
2019-01-17T09:53:35.049Z,6.30
2019-01-17T09:56:08.063Z,11.20
2019-01-17T09:58:39.818Z,7.20
2019-01-17T10:01:11.552Z,3.90
2019-01-17T10:03:43.177Z,8.97
2019-01-17T10:06:15.006Z,5.97
2019-01-17T10:08:46.726Z,5.17
2019-01-17T10:11:18.353Z,6.37
2019-01-17T10:13:50.068Z,6.30
2019-01-17T10:16:30.644Z,11.03
2019-01-17T10:19:42.517Z,6.10
2019-01-17T10:22:32.568Z,5.80
2019-01-17T10:25:44.069Z,3.60
2019-01-17T10:28:33.700Z,4.93
2019-01-17T10:31:40.024Z,7.90
2019-01-17T10:35:00.949Z,23.10
2019-01-17T10:38:01.192Z,4.47
2019-01-17T10:40:57.755Z,3.53
2019-01-17T10:44:22.437Z,10.30
2019-01-17T10:47:32.081Z,4.80
2019-01-17T10:50:22.345Z,3.63
2019-01-17T10:53:20.249Z,4.37
2019-01-17T10:56:31.171Z,10.87
2019-01-17T10:59:17.631Z,19.10
2019-01-17T11:02:03.545Z,5.07
2019-01-17T11:05:11.600Z,6.67
2019-01-17T11:07:59.961Z,5.77
2019-01-17T11:10:53.941Z,10.53
2019-01-17T11:13:34.492Z,3.50
2019-01-17T11:16:29.910Z,6.67
2019-01-17T11:19:17.013Z,5.33
2019-01-17T11:22:29.130Z,3.10
2019-01-17T11:25:19.215Z,6.43
2019-01-17T11:28:23.209Z,4.67
2019-01-17T11:31:27.001Z,11.20
2019-01-17T11:34:22.657Z,8.60
2019-01-17T11:37:28.080Z,4.17
2019-01-17T11:40:29.659Z,7.13
2019-01-17T11:43:26.315Z,9.03
2019-01-17T11:46:37.339Z,10.20
2019-01-17T11:50:03.157Z,9.00
2019-01-17T11:53:09.895Z,7.53
2019-01-17T11:56:09.636Z,14.23
2019-01-17T11:59:04.296Z,5.33
2019-01-17T12:02:05.015Z,4.77
2019-01-17T12:04:36.863Z,6.63
2019-01-17T12:07:14.603Z,7.67
2019-01-17T12:09:46.238Z,4.37
2019-01-17T12:12:21.655Z,3.47
2019-01-17T12:14:56.988Z,6.10
2019-01-17T12:17:28.609Z,7.37
2019-01-17T12:20:00.239Z,4.60
2019-01-17T12:22:31.856Z,9.50
2019-01-17T12:25:04.316Z,4.13
2019-01-17T12:27:42.361Z,3.63
2019-01-17T12:30:12.148Z,7.43
2019-01-17T12:32:43.774Z,4.83
2019-01-17T12:35:15.408Z,11.83
2019-01-17T12:37:47.036Z,6.23
2019-01-17T12:40:18.657Z,9.47
2019-01-17T12:42:50.292Z,5.73
2019-01-17T12:45:21.933Z,4.60
2019-01-17T12:47:53.552Z,9.90
2019-01-17T12:50:25.188Z,5.93
2019-01-17T12:52:56.839Z,4.73
2019-01-17T12:55:28.584Z,9.17
2019-01-17T12:58:00.210Z,6.83
2019-01-17T13:00:31.852Z,6.77
2019-01-17T13:03:03.656Z,3.87
2019-01-17T13:05:35.289Z,6.77
2019-01-17T13:08:07.034Z,6.33
2019-01-17T13:10:38.776Z,5.77
2019-01-17T13:13:10.413Z,4.33
2019-01-17T13:15:42.056Z,8.60
2019-01-17T13:18:13.678Z,6.37
2019-01-17T13:20:45.517Z,2.97
2019-01-17T13:23:17.228Z,7.23
2019-01-17T13:25:48.965Z,8.77
2019-01-17T13:28:20.595Z,5.30
2019-01-17T13:30:52.228Z,4.30
2019-01-17T13:33:23.958Z,4.93
2019-01-17T13:35:55.594Z,4.73
2019-01-17T13:38:27.218Z,3.90
2019-01-17T13:40:58.845Z,4.87
2019-01-17T13:43:30.470Z,8.47
2019-01-17T13:46:02.109Z,2.77
2019-01-17T13:48:33.737Z,6.97
2019-01-17T13:51:05.386Z,4.83
2019-01-17T13:53:37.008Z,5.37
2019-01-17T13:56:08.738Z,5.10
2019-01-17T13:58:40.352Z,2.23
2019-01-17T14:01:11.990Z,7.17
2019-01-17T14:03:43.633Z,2.27
2019-01-17T14:06:15.371Z,6.23
2019-01-17T14:08:47.003Z,3.77
2019-01-17T14:11:18.624Z,4.83
2019-01-17T14:13:50.247Z,2.93
2019-01-17T14:16:21.988Z,5.37
2019-01-17T14:18:53.608Z,4.43
2019-01-17T14:21:25.639Z,8.60
2019-01-17T14:23:57.472Z,8.47
2019-01-17T14:26:29.111Z,5.03
2019-01-17T14:29:00.738Z,5.37
2019-01-17T14:31:32.358Z,5.30
2019-01-17T14:34:03.981Z,2.97
2019-01-17T14:36:35.612Z,2.30
2019-01-17T14:39:07.632Z,3.10
2019-01-17T14:41:39.257Z,2.37
2019-01-17T14:44:10.878Z,3.23
2019-01-17T14:46:42.502Z,6.60
2019-01-17T14:49:14.151Z,1.83
2019-01-17T14:51:45.880Z,7.33
2019-01-17T14:54:17.504Z,5.50
2019-01-17T14:56:49.261Z,4.37
2019-01-17T14:59:20.887Z,5.33
2019-01-17T15:01:52.525Z,7.63
2019-01-17T15:04:24.176Z,6.60
2019-01-17T15:06:55.832Z,3.33
2019-01-17T15:09:27.485Z,6.07
2019-01-17T15:11:59.106Z,5.07
2019-01-17T15:14:30.745Z,6.17
2019-01-17T15:17:02.773Z,3.30
2019-01-17T15:19:34.409Z,5.53
2019-01-17T15:22:06.144Z,7.80
2019-01-17T15:24:37.773Z,5.00
2019-01-17T15:27:10.204Z,8.00
2019-01-17T15:29:41.849Z,7.20
2019-01-17T15:32:13.491Z,4.70
2019-01-17T15:34:45.128Z,6.20
2019-01-17T15:37:16.758Z,8.63
2019-01-17T15:39:48.376Z,5.50
2019-01-17T15:42:20.013Z,8.17
2019-01-17T15:44:51.626Z,8.97
2019-01-17T15:47:23.269Z,7.47
2019-01-17T15:49:54.897Z,8.03
2019-01-17T15:52:26.560Z,6.10
2019-01-17T15:54:58.189Z,5.20
2019-01-17T15:57:33.890Z,8.57
2019-01-17T16:00:05.230Z,13.20
2019-01-17T16:02:36.861Z,8.80
2019-01-17T16:05:08.481Z,11.20
2019-01-17T16:07:40.125Z,11.70
2019-01-17T16:10:12.310Z,19.70
2019-01-17T16:12:43.989Z,6.63
2019-01-17T16:15:17.705Z,9.93
2019-01-17T16:17:49.336Z,9.70
2019-01-17T16:20:21.065Z,4.70
2019-01-17T16:22:52.698Z,5.67
2019-01-17T16:25:24.417Z,7.27
2019-01-17T16:27:56.054Z,4.67
2019-01-17T16:30:29.566Z,4.97
2019-01-17T16:33:01.309Z,5.10
2019-01-17T16:35:32.940Z,7.73
2019-01-17T16:38:04.572Z,7.53
2019-01-17T16:40:36.202Z,11.90
2019-01-17T16:43:07.846Z,6.57
2019-01-17T16:45:39.481Z,9.83
2019-01-17T16:48:11.120Z,5.20
2019-01-17T16:50:42.756Z,4.07
2019-01-17T16:53:14.397Z,7.83
2019-01-17T16:55:46.026Z,9.93
2019-01-17T16:58:17.656Z,4.97
2019-01-17T17:00:49.294Z,13.33
2019-01-17T17:03:20.928Z,4.57
2019-01-17T17:05:52.654Z,6.30
2019-01-17T17:08:24.313Z,10.87
2019-01-17T17:10:56.024Z,8.90
2019-01-17T17:13:27.673Z,7.87
2019-01-17T17:15:59.570Z,13.50
2019-01-17T17:18:31.225Z,9.63
2019-01-17T17:21:02.965Z,11.33
2019-01-17T17:23:34.616Z,6.30
2019-01-17T17:26:06.253Z,10.33
2019-01-17T17:28:37.882Z,25.23
2019-01-17T17:31:09.508Z,9.77
2019-01-17T17:33:41.147Z,8.87
2019-01-17T17:36:12.763Z,10.60
2019-01-17T17:38:44.400Z,12.13
2019-01-17T17:41:16.037Z,14.40
2019-01-17T17:43:47.678Z,13.60
2019-01-17T17:46:19.316Z,9.40
2019-01-17T17:48:50.957Z,6.80
2019-01-17T17:51:22.590Z,9.40
2019-01-17T17:53:54.224Z,12.13
2019-01-17T17:56:25.850Z,10.00
2019-01-17T17:58:57.610Z,6.67
2019-01-17T18:01:37.810Z,9.23
2019-01-17T18:04:09.461Z,10.33
2019-01-17T18:06:41.220Z,8.57
2019-01-17T18:09:12.861Z,10.73
2019-01-17T18:11:44.493Z,9.07
2019-01-17T18:14:16.132Z,13.17
2019-01-17T18:16:47.777Z,13.43
2019-01-17T18:19:19.501Z,16.50
2019-01-17T18:21:51.138Z,22.27
2019-01-17T18:24:23.056Z,12.47
2019-01-17T18:26:54.693Z,19.03
2019-01-17T18:29:26.338Z,17.80
2019-01-17T18:31:57.966Z,25.47
2019-01-17T18:34:29.618Z,15.47
2019-01-17T18:37:01.245Z,10.83
2019-01-17T18:39:32.985Z,13.53
2019-01-17T18:42:04.624Z,8.67
2019-01-17T18:44:36.273Z,13.80
2019-01-17T18:47:08.006Z,17.20
2019-01-17T18:49:39.761Z,17.47
2019-01-17T18:52:11.699Z,18.27
2019-01-17T18:54:43.365Z,10.03
2019-01-17T18:57:15.026Z,16.93
2019-01-17T18:59:46.660Z,8.77
2019-01-17T19:02:18.300Z,23.33
2019-01-17T19:04:49.953Z,14.90
2019-01-17T19:07:21.580Z,13.13
2019-01-17T19:09:53.225Z,16.63
2019-01-17T19:12:24.845Z,16.17
2019-01-17T19:14:56.480Z,16.67
2019-01-17T19:17:28.109Z,14.67
2019-01-17T19:19:59.845Z,16.17
2019-01-17T19:22:31.457Z,18.97
2019-01-17T19:25:03.802Z,14.70
2019-01-17T19:27:35.440Z,16.37
2019-01-17T19:30:10.746Z,15.10
2019-01-17T19:32:42.399Z,18.20
2019-01-17T19:35:14.229Z,16.27
2019-01-17T19:37:45.889Z,20.40
2019-01-17T19:40:19.268Z,18.87
2019-01-17T19:42:51.109Z,18.70
2019-01-17T19:45:22.836Z,22.47
2019-01-17T19:47:54.593Z,20.93
2019-01-17T19:50:31.427Z,17.37
2019-01-17T19:53:04.063Z,25.53
2019-01-17T19:55:35.923Z,30.67
2019-01-17T19:58:07.567Z,24.87
2019-01-17T20:00:39.216Z,24.67
2019-01-17T20:03:10.860Z,24.10
2019-01-17T20:05:42.617Z,19.33
2019-01-17T20:08:14.456Z,17.30
2019-01-17T20:10:46.342Z,20.47
2019-01-17T20:13:18.029Z,16.13
2019-01-17T20:15:49.697Z,15.90
2019-01-17T20:18:21.341Z,21.40
2019-01-17T20:20:53.108Z,17.27
2019-01-17T20:23:24.768Z,19.83
2019-01-17T20:25:56.437Z,17.10
2019-01-17T20:28:28.076Z,17.97
2019-01-17T20:30:59.822Z,15.83
2019-01-17T20:33:31.559Z,12.47
2019-01-17T20:36:03.412Z,16.67
2019-01-17T20:38:35.053Z,19.37
2019-01-17T20:41:06.807Z,23.50
2019-01-17T20:43:38.427Z,19.47
2019-01-17T20:46:10.078Z,24.27
2019-01-17T20:48:41.732Z,23.27
2019-01-17T20:51:13.360Z,23.47
2019-01-17T20:53:45.027Z,21.07
2019-01-17T20:56:16.677Z,25.30
2019-01-17T20:58:48.361Z,21.23
2019-01-17T21:02:08.749Z,21.93
2019-01-17T21:04:40.428Z,22.97
2019-01-17T21:07:13.057Z,17.60
2019-01-17T21:09:44.827Z,24.67
2019-01-17T21:12:21.341Z,21.97
2019-01-17T21:14:53.017Z,18.13
2019-01-17T21:17:24.675Z,17.43
2019-01-17T21:19:56.305Z,18.57
2019-01-17T21:22:27.969Z,20.90
2019-01-17T21:24:59.649Z,17.03
2019-01-17T21:27:31.278Z,18.87
2019-01-17T21:30:10.998Z,23.07
2019-01-17T21:32:42.624Z,18.43
2019-01-17T21:35:14.257Z,17.10
2019-01-17T21:37:46.004Z,15.47
2019-01-17T21:40:18.328Z,15.50
2019-01-17T21:42:50.049Z,16.07
2019-01-17T21:45:21.688Z,20.87
2019-01-17T21:47:59.881Z,18.50
2019-01-17T21:50:36.475Z,12.90
2019-01-17T21:53:08.193Z,13.43
2019-01-17T21:55:39.880Z,14.57
2019-01-17T21:58:11.546Z,14.00
2019-01-17T22:00:43.494Z,16.57
2019-01-17T22:03:15.421Z,14.27
2019-01-17T22:05:47.106Z,16.10
2019-01-17T22:08:18.748Z,14.83
2019-01-17T22:10:50.377Z,10.37
2019-01-17T22:13:22.112Z,13.23
2019-01-17T22:15:53.748Z,16.20
2019-01-17T22:18:25.784Z,13.77
2019-01-17T22:20:57.388Z,11.80
2019-01-17T22:23:29.045Z,11.77
2019-01-17T22:26:00.685Z,14.33
2019-01-17T22:28:32.324Z,13.10
2019-01-17T22:31:03.948Z,13.03
2019-01-17T22:33:35.575Z,18.13
2019-01-17T22:36:11.229Z,19.40
2019-01-17T22:38:43.128Z,13.20
2019-01-17T22:41:15.583Z,18.83
2019-01-17T22:43:47.294Z,20.50
2019-01-17T22:46:23.630Z,12.67
2019-01-17T22:49:00.396Z,25.40
2019-01-17T22:51:35.184Z,14.07
2019-01-17T22:54:06.893Z,15.10
2019-01-17T22:56:39.210Z,21.03
2019-01-17T22:59:10.820Z,13.93
2019-01-17T23:01:42.441Z,16.27
2019-01-17T23:04:14.082Z,9.13
2019-01-17T23:06:45.705Z,12.33
2019-01-17T23:09:18.581Z,12.20
2019-01-17T23:11:50.219Z,13.27
2019-01-17T23:14:21.880Z,17.40
2019-01-17T23:16:53.499Z,18.00
2019-01-17T23:19:25.125Z,14.83
2019-01-17T23:21:56.861Z,18.37
2019-01-17T23:24:28.503Z,19.57
2019-01-17T23:27:00.133Z,15.73
2019-01-17T23:29:31.778Z,15.43
2019-01-17T23:32:03.412Z,17.43
2019-01-17T23:34:35.041Z,16.23
2019-01-17T23:37:06.668Z,13.80
2019-01-17T23:39:38.289Z,8.50
2019-01-17T23:42:10.013Z,15.63
2019-01-17T23:44:41.658Z,17.20
2019-01-17T23:47:13.277Z,12.53
2019-01-17T23:49:44.937Z,11.33
2019-01-17T23:52:16.546Z,16.87
2019-01-17T23:54:48.185Z,13.33
2019-01-17T23:57:19.811Z,17.60
2019-01-17T23:59:51.437Z,10.50
